sensor_id;sensor_type;location;lat;lon;timestamp;temperature;humidity
3866;DHT22;1948;53.250;10.412;2023-02-25T00:01:45;5.00;99.90
3866;DHT22;1948;53.250;10.412;2023-02-25T00:04:28;4.90;99.90
3866;DHT22;1948;53.250;10.412;2023-02-25T00:06:56;5.00;99.90
3866;DHT22;1948;53.250;10.412;2023-02-25T00:09:23;5.00;99.90
3866;DHT22;1948;53.250;10.412;2023-02-25T00:11:50;5.00;99.90
3866;DHT22;1948;53.250;10.412;2023-02-25T00:14:17;5.00;99.90
3866;DHT22;1948;53.250;10.412;2023-02-25T00:16:49;5.00;99.90
3866;DHT22;1948;53.250;10.412;2023-02-25T00:19:18;5.00;99.90
3866;DHT22;1948;53.250;10.412;2023-02-25T00:21:48;5.10;99.90
3866;DHT22;1948;53.250;10.412;2023-02-25T00:24:15;5.10;99.90
3866;DHT22;1948;53.250;10.412;2023-02-25T00:26:47;5.10;99.90
3866;DHT22;1948;53.250;10.412;2023-02-25T00:29:18;5.10;99.90
3866;DHT22;1948;53.250;10.412;2023-02-25T00:31:45;5.10;99.90
3866;DHT22;1948;53.250;10.412;2023-02-25T00:34:15;5.00;99.90
3866;DHT22;1948;53.250;10.412;2023-02-25T00:36:46;5.00;99.90
3866;DHT22;1948;53.250;10.412;2023-02-25T00:39:18;5.00;99.90
3866;DHT22;1948;53.250;10.412;2023-02-25T00:41:45;4.90;99.90
3866;DHT22;1948;53.250;10.412;2023-02-25T00:44:14;4.90;99.90
3866;DHT22;1948;53.250;10.412;2023-02-25T00:46:43;4.90;99.90
3866;DHT22;1948;53.250;10.412;2023-02-25T00:49:10;4.80;99.90
3866;DHT22;1948;53.250;10.412;2023-02-25T00:51:46;4.80;99.90
3866;DHT22;1948;53.250;10.412;2023-02-25T00:54:13;4.80;99.90
3866;DHT22;1948;53.250;10.412;2023-02-25T00:56:42;4.80;99.90
3866;DHT22;1948;53.250;10.412;2023-02-25T00:59:11;4.70;99.90
3866;DHT22;1948;53.250;10.412;2023-02-25T01:01:39;4.70;99.90
3866;DHT22;1948;53.250;10.412;2023-02-25T01:04:10;4.70;99.90
3866;DHT22;1948;53.250;10.412;2023-02-25T01:06:37;4.80;99.90
3866;DHT22;1948;53.250;10.412;2023-02-25T01:09:08;4.80;99.90
3866;DHT22;1948;53.250;10.412;2023-02-25T01:11:45;4.80;99.90
3866;DHT22;1948;53.250;10.412;2023-02-25T01:14:16;4.80;99.90
3866;DHT22;1948;53.250;10.412;2023-02-25T01:16:49;4.80;99.90
3866;DHT22;1948;53.250;10.412;2023-02-25T01:19:21;4.90;99.90
3866;DHT22;1948;53.250;10.412;2023-02-25T01:21:53;4.80;99.90
3866;DHT22;1948;53.250;10.412;2023-02-25T01:24:27;4.90;99.90
3866;DHT22;1948;53.250;10.412;2023-02-25T01:26:58;4.90;99.90
3866;DHT22;1948;53.250;10.412;2023-02-25T01:29:28;4.90;99.90
3866;DHT22;1948;53.250;10.412;2023-02-25T01:32:10;4.90;99.90
3866;DHT22;1948;53.250;10.412;2023-02-25T01:34:41;5.00;99.90
3866;DHT22;1948;53.250;10.412;2023-02-25T01:37:08;4.90;99.90
3866;DHT22;1948;53.250;10.412;2023-02-25T01:39:35;5.00;99.90
3866;DHT22;1948;53.250;10.412;2023-02-25T01:42:03;5.00;99.90
3866;DHT22;1948;53.250;10.412;2023-02-25T01:47:40;4.90;99.90
3866;DHT22;1948;53.250;10.412;2023-02-25T01:50:13;4.90;99.90
3866;DHT22;1948;53.250;10.412;2023-02-25T01:52:42;4.90;99.90
3866;DHT22;1948;53.250;10.412;2023-02-25T01:55:11;4.80;99.90
3866;DHT22;1948;53.250;10.412;2023-02-25T01:57:40;4.80;99.90
3866;DHT22;1948;53.250;10.412;2023-02-25T02:00:09;4.90;99.90
3866;DHT22;1948;53.250;10.412;2023-02-25T02:02:44;4.90;99.90
3866;DHT22;1948;53.250;10.412;2023-02-25T02:05:13;4.80;99.90
3866;DHT22;1948;53.250;10.412;2023-02-25T02:07:40;4.90;99.90
3866;DHT22;1948;53.250;10.412;2023-02-25T02:10:12;4.90;99.90
3866;DHT22;1948;53.250;10.412;2023-02-25T02:12:43;4.90;99.90
3866;DHT22;1948;53.250;10.412;2023-02-25T02:15:13;4.90;99.90
3866;DHT22;1948;53.250;10.412;2023-02-25T02:17:46;4.90;99.90
3866;DHT22;1948;53.250;10.412;2023-02-25T02:33:10;4.80;99.90
3866;DHT22;1948;53.250;10.412;2023-02-25T02:35:55;4.90;99.90
3866;DHT22;1948;53.250;10.412;2023-02-25T02:39:00;4.90;99.90
3866;DHT22;1948;53.250;10.412;2023-02-25T02:42:06;4.90;99.90
3866;DHT22;1948;53.250;10.412;2023-02-25T02:44:49;4.90;99.90
3866;DHT22;1948;53.250;10.412;2023-02-25T02:47:24;4.90;99.90
3866;DHT22;1948;53.250;10.412;2023-02-25T02:50:13;4.80;99.90
3866;DHT22;1948;53.250;10.412;2023-02-25T02:52:49;4.90;99.90
3866;DHT22;1948;53.250;10.412;2023-02-25T02:55:26;4.90;99.90
3866;DHT22;1948;53.250;10.412;2023-02-25T02:58:05;4.90;99.90
3866;DHT22;1948;53.250;10.412;2023-02-25T03:00:42;4.90;99.90
3866;DHT22;1948;53.250;10.412;2023-02-25T03:03:16;4.80;99.90
3866;DHT22;1948;53.250;10.412;2023-02-25T03:05:49;4.80;99.90
3866;DHT22;1948;53.250;10.412;2023-02-25T03:08:25;4.80;99.90
3866;DHT22;1948;53.250;10.412;2023-02-25T03:10:54;4.80;99.90
3866;DHT22;1948;53.250;10.412;2023-02-25T03:13:21;4.80;99.90
3866;DHT22;1948;53.250;10.412;2023-02-25T03:15:49;4.80;99.90
3866;DHT22;1948;53.250;10.412;2023-02-25T03:18:42;4.80;99.90
3866;DHT22;1948;53.250;10.412;2023-02-25T03:21:14;4.90;99.90
3866;DHT22;1948;53.250;10.412;2023-02-25T03:23:48;4.90;99.90
3866;DHT22;1948;53.250;10.412;2023-02-25T03:26:22;5.00;99.90
3866;DHT22;1948;53.250;10.412;2023-02-25T03:28:56;5.00;99.90
3866;DHT22;1948;53.250;10.412;2023-02-25T03:31:31;4.90;99.90
3866;DHT22;1948;53.250;10.412;2023-02-25T03:34:11;4.90;99.90
3866;DHT22;1948;53.250;10.412;2023-02-25T03:36:52;4.90;99.90
3866;DHT22;1948;53.250;10.412;2023-02-25T03:39:28;4.90;99.90
3866;DHT22;1948;53.250;10.412;2023-02-25T03:41:59;4.90;99.90
3866;DHT22;1948;53.250;10.412;2023-02-25T03:44:33;4.90;99.90
3866;DHT22;1948;53.250;10.412;2023-02-25T03:47:06;4.90;99.90
3866;DHT22;1948;53.250;10.412;2023-02-25T03:49:45;4.90;99.90
3866;DHT22;1948;53.250;10.412;2023-02-25T03:52:21;4.80;99.90
3866;DHT22;1948;53.250;10.412;2023-02-25T03:54:51;4.80;99.90
3866;DHT22;1948;53.250;10.412;2023-02-25T03:57:20;4.70;99.90
3866;DHT22;1948;53.250;10.412;2023-02-25T03:59:54;4.70;99.90
3866;DHT22;1948;53.250;10.412;2023-02-25T04:02:31;4.70;99.90
3866;DHT22;1948;53.250;10.412;2023-02-25T04:04:59;4.70;99.90
3866;DHT22;1948;53.250;10.412;2023-02-25T04:07:33;4.60;99.90
3866;DHT22;1948;53.250;10.412;2023-02-25T04:10:01;4.60;99.90
3866;DHT22;1948;53.250;10.412;2023-02-25T04:12:29;4.70;99.90
3866;DHT22;1948;53.250;10.412;2023-02-25T04:14:58;4.60;99.90
3866;DHT22;1948;53.250;10.412;2023-02-25T04:17:25;4.60;99.90
3866;DHT22;1948;53.250;10.412;2023-02-25T04:19:55;4.60;99.90
3866;DHT22;1948;53.250;10.412;2023-02-25T04:22:22;4.60;99.90
3866;DHT22;1948;53.250;10.412;2023-02-25T04:24:52;4.70;99.90
3866;DHT22;1948;53.250;10.412;2023-02-25T04:27:19;4.60;99.90
3866;DHT22;1948;53.250;10.412;2023-02-25T04:29:46;4.60;99.90
3866;DHT22;1948;53.250;10.412;2023-02-25T04:32:15;4.60;99.90
3866;DHT22;1948;53.250;10.412;2023-02-25T04:34:42;4.60;99.90
3866;DHT22;1948;53.250;10.412;2023-02-25T04:37:11;4.50;99.90
3866;DHT22;1948;53.250;10.412;2023-02-25T04:39:38;4.50;99.90
3866;DHT22;1948;53.250;10.412;2023-02-25T04:42:05;4.50;99.90
3866;DHT22;1948;53.250;10.412;2023-02-25T04:44:33;4.50;99.90
3866;DHT22;1948;53.250;10.412;2023-02-25T04:47:02;4.50;99.90
3866;DHT22;1948;53.250;10.412;2023-02-25T04:49:29;4.50;99.90
3866;DHT22;1948;53.250;10.412;2023-02-25T04:51:56;4.50;99.90
3866;DHT22;1948;53.250;10.412;2023-02-25T04:54:27;4.50;99.90
3866;DHT22;1948;53.250;10.412;2023-02-25T04:56:54;4.50;99.90
3866;DHT22;1948;53.250;10.412;2023-02-25T04:59:21;4.50;99.90
3866;DHT22;1948;53.250;10.412;2023-02-25T05:01:52;4.50;99.90
3866;DHT22;1948;53.250;10.412;2023-02-25T05:04:21;4.50;99.90
3866;DHT22;1948;53.250;10.412;2023-02-25T05:06:48;4.40;99.90
3866;DHT22;1948;53.250;10.412;2023-02-25T05:09:15;4.40;99.90
3866;DHT22;1948;53.250;10.412;2023-02-25T05:11:42;4.40;99.90
3866;DHT22;1948;53.250;10.412;2023-02-25T05:14:11;4.30;99.90
3866;DHT22;1948;53.250;10.412;2023-02-25T05:16:38;4.30;99.90
3866;DHT22;1948;53.250;10.412;2023-02-25T05:19:08;4.30;99.90
3866;DHT22;1948;53.250;10.412;2023-02-25T05:21:35;4.20;99.90
3866;DHT22;1948;53.250;10.412;2023-02-25T05:24:02;4.20;99.90
3866;DHT22;1948;53.250;10.412;2023-02-25T05:26:29;4.20;99.90
3866;DHT22;1948;53.250;10.412;2023-02-25T05:28:58;4.20;99.90
3866;DHT22;1948;53.250;10.412;2023-02-25T05:31:25;4.20;99.90
3866;DHT22;1948;53.250;10.412;2023-02-25T05:33:55;4.10;99.90
3866;DHT22;1948;53.250;10.412;2023-02-25T05:36:24;4.10;99.90
3866;DHT22;1948;53.250;10.412;2023-02-25T05:38:55;4.10;99.90
3866;DHT22;1948;53.250;10.412;2023-02-25T05:41:29;4.10;99.90
3866;DHT22;1948;53.250;10.412;2023-02-25T05:43:56;4.10;99.90
3866;DHT22;1948;53.250;10.412;2023-02-25T05:46:24;4.20;99.90
3866;DHT22;1948;53.250;10.412;2023-02-25T05:48:52;4.10;99.90
3866;DHT22;1948;53.250;10.412;2023-02-25T05:51:20;4.10;99.90
3866;DHT22;1948;53.250;10.412;2023-02-25T05:53:50;4.20;99.90
3866;DHT22;1948;53.250;10.412;2023-02-25T05:56:24;4.20;99.90
3866;DHT22;1948;53.250;10.412;2023-02-25T05:58:57;4.20;99.90
3866;DHT22;1948;53.250;10.412;2023-02-25T06:01:29;4.20;99.90
3866;DHT22;1948;53.250;10.412;2023-02-25T06:03:57;4.20;99.90
3866;DHT22;1948;53.250;10.412;2023-02-25T06:06:28;4.20;99.90
3866;DHT22;1948;53.250;10.412;2023-02-25T06:08:57;4.20;99.90
3866;DHT22;1948;53.250;10.412;2023-02-25T06:11:27;4.20;99.90
3866;DHT22;1948;53.250;10.412;2023-02-25T06:13:58;4.20;99.90
3866;DHT22;1948;53.250;10.412;2023-02-25T06:16:29;4.20;99.90
3866;DHT22;1948;53.250;10.412;2023-02-25T06:19:00;4.20;99.90
3866;DHT22;1948;53.250;10.412;2023-02-25T06:21:28;4.20;99.90
3866;DHT22;1948;53.250;10.412;2023-02-25T06:23:56;4.20;99.90
3866;DHT22;1948;53.250;10.412;2023-02-25T06:26:23;4.20;99.90
3866;DHT22;1948;53.250;10.412;2023-02-25T06:28:51;4.20;99.90
3866;DHT22;1948;53.250;10.412;2023-02-25T06:31:19;4.20;99.90
3866;DHT22;1948;53.250;10.412;2023-02-25T06:33:49;4.20;99.90
3866;DHT22;1948;53.250;10.412;2023-02-25T06:36:20;4.20;99.90
3866;DHT22;1948;53.250;10.412;2023-02-25T06:38:48;4.20;99.90
3866;DHT22;1948;53.250;10.412;2023-02-25T06:41:17;4.20;99.90
3866;DHT22;1948;53.250;10.412;2023-02-25T06:43:48;4.20;99.90
3866;DHT22;1948;53.250;10.412;2023-02-25T06:46:23;4.20;99.90
3866;DHT22;1948;53.250;10.412;2023-02-25T06:48:54;4.20;99.90
3866;DHT22;1948;53.250;10.412;2023-02-25T06:51:22;4.30;99.90
3866;DHT22;1948;53.250;10.412;2023-02-25T06:53:53;4.20;99.90
3866;DHT22;1948;53.250;10.412;2023-02-25T06:56:23;4.30;99.90
3866;DHT22;1948;53.250;10.412;2023-02-25T06:58:52;4.30;99.90
3866;DHT22;1948;53.250;10.412;2023-02-25T07:01:19;4.30;99.90
3866;DHT22;1948;53.250;10.412;2023-02-25T07:03:46;4.20;99.90
3866;DHT22;1948;53.250;10.412;2023-02-25T07:06:13;4.20;99.90
3866;DHT22;1948;53.250;10.412;2023-02-25T07:08:46;4.30;99.90
3866;DHT22;1948;53.250;10.412;2023-02-25T07:13:48;4.30;99.90
3866;DHT22;1948;53.250;10.412;2023-02-25T07:16:15;4.30;99.90
3866;DHT22;1948;53.250;10.412;2023-02-25T07:18:43;4.30;99.90
3866;DHT22;1948;53.250;10.412;2023-02-25T07:21:11;4.30;99.90
3866;DHT22;1948;53.250;10.412;2023-02-25T07:23:41;4.30;99.90
3866;DHT22;1948;53.250;10.412;2023-02-25T07:26:10;4.40;99.90
3866;DHT22;1948;53.250;10.412;2023-02-25T07:28:38;4.40;99.90
3866;DHT22;1948;53.250;10.412;2023-02-25T07:31:14;4.40;99.90
3866;DHT22;1948;53.250;10.412;2023-02-25T07:33:44;4.40;99.90
3866;DHT22;1948;53.250;10.412;2023-02-25T07:36:12;4.40;99.90
3866;DHT22;1948;53.250;10.412;2023-02-25T07:38:40;4.50;99.90
3866;DHT22;1948;53.250;10.412;2023-02-25T07:41:12;4.60;99.90
3866;DHT22;1948;53.250;10.412;2023-02-25T07:43:43;4.60;99.90
3866;DHT22;1948;53.250;10.412;2023-02-25T07:46:11;4.60;99.90
3866;DHT22;1948;53.250;10.412;2023-02-25T07:48:39;4.70;99.90
3866;DHT22;1948;53.250;10.412;2023-02-25T07:51:10;4.60;99.90
3866;DHT22;1948;53.250;10.412;2023-02-25T07:53:43;4.60;99.90
3866;DHT22;1948;53.250;10.412;2023-02-25T07:56:11;4.60;99.90
3866;DHT22;1948;53.250;10.412;2023-02-25T07:58:39;4.60;99.90
3866;DHT22;1948;53.250;10.412;2023-02-25T08:01:10;4.70;99.90
3866;DHT22;1948;53.250;10.412;2023-02-25T08:04:00;4.80;99.90
3866;DHT22;1948;53.250;10.412;2023-02-25T08:06:38;5.00;99.90
3866;DHT22;1948;53.250;10.412;2023-02-25T08:09:09;5.20;99.90
3866;DHT22;1948;53.250;10.412;2023-02-25T08:11:39;5.40;99.90
3866;DHT22;1948;53.250;10.412;2023-02-25T08:14:10;5.50;99.90
3866;DHT22;1948;53.250;10.412;2023-02-25T08:16:37;5.60;99.90
3866;DHT22;1948;53.250;10.412;2023-02-25T08:19:05;5.90;99.90
3866;DHT22;1948;53.250;10.412;2023-02-25T08:21:32;6.20;99.90
3866;DHT22;1948;53.250;10.412;2023-02-25T08:24:03;6.50;99.90
3866;DHT22;1948;53.250;10.412;2023-02-25T08:26:30;6.60;99.90
3866;DHT22;1948;53.250;10.412;2023-02-25T08:28:57;6.70;99.90
3866;DHT22;1948;53.250;10.412;2023-02-25T08:31:26;6.90;99.90
3866;DHT22;1948;53.250;10.412;2023-02-25T08:33:56;7.10;99.90
3866;DHT22;1948;53.250;10.412;2023-02-25T08:36:28;7.30;99.90
3866;DHT22;1948;53.250;10.412;2023-02-25T08:38:59;7.60;99.90
3866;DHT22;1948;53.250;10.412;2023-02-25T08:41:31;7.60;99.90
3866;DHT22;1948;53.250;10.412;2023-02-25T08:43:58;7.60;99.90
3866;DHT22;1948;53.250;10.412;2023-02-25T08:46:29;7.20;99.90
3866;DHT22;1948;53.250;10.412;2023-02-25T08:48:57;6.90;99.90
3866;DHT22;1948;53.250;10.412;2023-02-25T08:51:27;6.60;99.90
3866;DHT22;1948;53.250;10.412;2023-02-25T08:54:09;6.40;99.90
3866;DHT22;1948;53.250;10.412;2023-02-25T08:56:41;6.40;99.90
3866;DHT22;1948;53.250;10.412;2023-02-25T08:59:12;6.30;99.90
3866;DHT22;1948;53.250;10.412;2023-02-25T09:01:40;6.30;99.90
3866;DHT22;1948;53.250;10.412;2023-02-25T09:06:48;6.80;99.90
3866;DHT22;1948;53.250;10.412;2023-02-25T09:09:18;7.40;99.90
3866;DHT22;1948;53.250;10.412;2023-02-25T09:11:47;8.80;99.90
3866;DHT22;1948;53.250;10.412;2023-02-25T09:14:17;10.40;99.90
3866;DHT22;1948;53.250;10.412;2023-02-25T09:16:45;11.00;99.90
3866;DHT22;1948;53.250;10.412;2023-02-25T09:19:13;11.40;99.90
3866;DHT22;1948;53.250;10.412;2023-02-25T09:21:44;12.60;99.90
3866;DHT22;1948;53.250;10.412;2023-02-25T09:24:14;13.90;99.90
3866;DHT22;1948;53.250;10.412;2023-02-25T09:26:46;13.60;99.90
3866;DHT22;1948;53.250;10.412;2023-02-25T09:29:13;13.50;99.90
3866;DHT22;1948;53.250;10.412;2023-02-25T09:31:40;14.20;99.90
3866;DHT22;1948;53.250;10.412;2023-02-25T09:34:09;13.30;99.90
3866;DHT22;1948;53.250;10.412;2023-02-25T09:36:40;13.20;99.90
3866;DHT22;1948;53.250;10.412;2023-02-25T09:39:07;12.90;99.90
3866;DHT22;1948;53.250;10.412;2023-02-25T09:41:51;12.10;99.90
3866;DHT22;1948;53.250;10.412;2023-02-25T09:44:28;11.20;99.90
3866;DHT22;1948;53.250;10.412;2023-02-25T09:49:38;9.30;99.90
3866;DHT22;1948;53.250;10.412;2023-02-25T09:52:15;8.50;99.90
3866;DHT22;1948;53.250;10.412;2023-02-25T09:54:51;7.80;99.90
3866;DHT22;1948;53.250;10.412;2023-02-25T09:57:24;7.40;99.90
3866;DHT22;1948;53.250;10.412;2023-02-25T09:59:53;7.50;99.90
3866;DHT22;1948;53.250;10.412;2023-02-25T10:08:19;7.60;99.90
3866;DHT22;1948;53.250;10.412;2023-02-25T10:11:07;7.20;99.90
3866;DHT22;1948;53.250;10.412;2023-02-25T10:13:55;6.80;99.90
3866;DHT22;1948;53.250;10.412;2023-02-25T10:24:58;6.50;99.90
3866;DHT22;1948;53.250;10.412;2023-02-25T10:27:37;6.10;99.90
3866;DHT22;1948;53.250;10.412;2023-02-25T10:30:26;6.00;99.90
3866;DHT22;1948;53.250;10.412;2023-02-25T10:32:59;5.70;99.90
3866;DHT22;1948;53.250;10.412;2023-02-25T10:35:33;5.40;99.90
3866;DHT22;1948;53.250;10.412;2023-02-25T10:38:08;5.40;99.90
3866;DHT22;1948;53.250;10.412;2023-02-25T10:40:36;5.40;99.90
3866;DHT22;1948;53.250;10.412;2023-02-25T10:43:26;5.40;99.90
3866;DHT22;1948;53.250;10.412;2023-02-25T10:46:03;5.40;99.90
3866;DHT22;1948;53.250;10.412;2023-02-25T10:48:52;5.20;99.90
3866;DHT22;1948;53.250;10.412;2023-02-25T10:51:22;5.00;99.90
3866;DHT22;1948;53.250;10.412;2023-02-25T10:56:33;5.00;99.90
3866;DHT22;1948;53.250;10.412;2023-02-25T10:59:36;5.10;99.90
3866;DHT22;1948;53.250;10.412;2023-02-25T11:02:27;5.20;99.90
3866;DHT22;1948;53.250;10.412;2023-02-25T11:04:57;5.20;99.90
3866;DHT22;1948;53.250;10.412;2023-02-25T11:07:43;5.80;99.90
3866;DHT22;1948;53.250;10.412;2023-02-25T11:10:20;7.20;99.90
3866;DHT22;1948;53.250;10.412;2023-02-25T11:12:55;8.70;99.90
3866;DHT22;1948;53.250;10.412;2023-02-25T11:15:35;8.50;99.90
3866;DHT22;1948;53.250;10.412;2023-02-25T11:18:27;8.10;99.90
3866;DHT22;1948;53.250;10.412;2023-02-25T11:21:04;7.60;99.90
3866;DHT22;1948;53.250;10.412;2023-02-25T11:23:44;7.10;99.90
3866;DHT22;1948;53.250;10.412;2023-02-25T11:26:36;6.60;99.90
3866;DHT22;1948;53.250;10.412;2023-02-25T11:29:19;6.20;99.90
3866;DHT22;1948;53.250;10.412;2023-02-25T11:31:55;6.00;99.90
3866;DHT22;1948;53.250;10.412;2023-02-25T11:34:31;5.90;99.90
3866;DHT22;1948;53.250;10.412;2023-02-25T11:40:00;5.80;99.90
3866;DHT22;1948;53.250;10.412;2023-02-25T11:42:33;5.60;99.90
3866;DHT22;1948;53.250;10.412;2023-02-25T11:45:03;5.30;99.90
3866;DHT22;1948;53.250;10.412;2023-02-25T11:47:36;5.20;99.90
3866;DHT22;1948;53.250;10.412;2023-02-25T11:50:16;5.10;99.90
3866;DHT22;1948;53.250;10.412;2023-02-25T11:53:22;5.10;99.90
3866;DHT22;1948;53.250;10.412;2023-02-25T12:01:15;5.40;99.90
3866;DHT22;1948;53.250;10.412;2023-02-25T12:10:46;5.80;99.90
3866;DHT22;1948;53.250;10.412;2023-02-25T12:16:22;9.10;99.90
3866;DHT22;1948;53.250;10.412;2023-02-25T12:40:11;6.40;99.90
3866;DHT22;1948;53.250;10.412;2023-02-25T12:42:59;6.70;99.90
3866;DHT22;1948;53.250;10.412;2023-02-25T12:46:11;7.30;99.90
3866;DHT22;1948;53.250;10.412;2023-02-25T12:49:24;8.40;99.90
3866;DHT22;1948;53.250;10.412;2023-02-25T12:52:30;11.70;99.90
3866;DHT22;1948;53.250;10.412;2023-02-25T13:26:47;13.90;67.40
3866;DHT22;1948;53.250;10.412;2023-02-25T13:32:25;14.60;71.10
3866;DHT22;1948;53.250;10.412;2023-02-25T13:38:18;11.80;74.40
3866;DHT22;1948;53.250;10.412;2023-02-25T13:47:40;13.40;75.60
3866;DHT22;1948;53.250;10.412;2023-02-25T13:51:01;15.60;73.50
3866;DHT22;1948;53.250;10.412;2023-02-25T13:53:47;17.70;69.50
3866;DHT22;1948;53.250;10.412;2023-02-25T14:11:24;15.60;60.50
3866;DHT22;1948;53.250;10.412;2023-02-25T14:18:07;12.70;64.70
3866;DHT22;1948;53.250;10.412;2023-02-25T14:20:43;11.60;65.20
3866;DHT22;1948;53.250;10.412;2023-02-25T14:23:51;11.60;66.30
3866;DHT22;1948;53.250;10.412;2023-02-25T14:44:00;7.90;87.60
3866;DHT22;1948;53.250;10.412;2023-02-25T14:46:47;7.70;85.40
3866;DHT22;1948;53.250;10.412;2023-02-25T14:49:29;7.60;88.10
3866;DHT22;1948;53.250;10.412;2023-02-25T14:58:51;7.60;90.80
3866;DHT22;1948;53.250;10.412;2023-02-25T15:14:04;7.00;95.10
3866;DHT22;1948;53.250;10.412;2023-02-25T15:17:27;8.10;94.60
3866;DHT22;1948;53.250;10.412;2023-02-25T15:23:10;10.80;88.80
3866;DHT22;1948;53.250;10.412;2023-02-25T15:25:49;10.10;85.00
3866;DHT22;1948;53.250;10.412;2023-02-25T15:28:46;9.30;87.10
3866;DHT22;1948;53.250;10.412;2023-02-25T15:31:27;8.40;90.70
3866;DHT22;1948;53.250;10.412;2023-02-25T15:36:47;7.90;92.70
3866;DHT22;1948;53.250;10.412;2023-02-25T15:42:10;7.70;92.20
3866;DHT22;1948;53.250;10.412;2023-02-25T15:44:41;7.20;92.70
3866;DHT22;1948;53.250;10.412;2023-02-25T15:47:24;7.00;93.30
3866;DHT22;1948;53.250;10.412;2023-02-25T15:49:54;6.80;94.40
3866;DHT22;1948;53.250;10.412;2023-02-25T15:52:53;6.70;94.90
3866;DHT22;1948;53.250;10.412;2023-02-25T15:58:00;6.20;99.20
3866;DHT22;1948;53.250;10.412;2023-02-25T16:11:41;6.00;99.90
3866;DHT22;1948;53.250;10.412;2023-02-25T16:14:25;5.90;99.90
3866;DHT22;1948;53.250;10.412;2023-02-25T16:17:30;5.90;99.90
3866;DHT22;1948;53.250;10.412;2023-02-25T16:20:28;5.90;99.90
3866;DHT22;1948;53.250;10.412;2023-02-25T16:22:58;5.70;99.90
3866;DHT22;1948;53.250;10.412;2023-02-25T16:31:23;5.20;99.90
3866;DHT22;1948;53.250;10.412;2023-02-25T16:36:44;4.90;99.90
3866;DHT22;1948;53.250;10.412;2023-02-25T16:39:25;4.80;99.90
3866;DHT22;1948;53.250;10.412;2023-02-25T16:42:10;4.70;99.90
3866;DHT22;1948;53.250;10.412;2023-02-25T16:44:43;4.60;99.90
3866;DHT22;1948;53.250;10.412;2023-02-25T16:47:27;4.60;99.90
3866;DHT22;1948;53.250;10.412;2023-02-25T16:49:58;4.50;99.90
3866;DHT22;1948;53.250;10.412;2023-02-25T16:52:31;4.50;99.90
3866;DHT22;1948;53.250;10.412;2023-02-25T16:55:06;4.40;99.90
3866;DHT22;1948;53.250;10.412;2023-02-25T16:57:38;4.30;99.90
3866;DHT22;1948;53.250;10.412;2023-02-25T17:02:45;4.20;99.90
3866;DHT22;1948;53.250;10.412;2023-02-25T17:05:26;4.20;99.90
3866;DHT22;1948;53.250;10.412;2023-02-25T17:07:58;4.20;99.90
3866;DHT22;1948;53.250;10.412;2023-02-25T17:10:33;4.10;99.90
3866;DHT22;1948;53.250;10.412;2023-02-25T17:13:19;4.10;99.90
3866;DHT22;1948;53.250;10.412;2023-02-25T17:15:50;4.00;99.90
3866;DHT22;1948;53.250;10.412;2023-02-25T17:18:23;3.90;99.90
3866;DHT22;1948;53.250;10.412;2023-02-25T17:21:04;3.90;99.90
3866;DHT22;1948;53.250;10.412;2023-02-25T17:23:38;3.90;99.90
3866;DHT22;1948;53.250;10.412;2023-02-25T17:26:18;3.80;99.90
3866;DHT22;1948;53.250;10.412;2023-02-25T17:28:54;3.80;99.90
3866;DHT22;1948;53.250;10.412;2023-02-25T17:31:27;3.80;99.90
3866;DHT22;1948;53.250;10.412;2023-02-25T17:33:58;3.70;99.90
3866;DHT22;1948;53.250;10.412;2023-02-25T17:36:35;3.70;99.90
3866;DHT22;1948;53.250;10.412;2023-02-25T17:39:13;3.60;99.90
3866;DHT22;1948;53.250;10.412;2023-02-25T17:41:42;3.60;99.90
3866;DHT22;1948;53.250;10.412;2023-02-25T17:44:55;3.60;99.90
3866;DHT22;1948;53.250;10.412;2023-02-25T17:47:10;3.60;99.90
3866;DHT22;1948;53.250;10.412;2023-02-25T17:49:38;3.50;99.90
3866;DHT22;1948;53.250;10.412;2023-02-25T17:52:29;3.50;99.90
3866;DHT22;1948;53.250;10.412;2023-02-25T17:55:04;3.50;99.90
3866;DHT22;1948;53.250;10.412;2023-02-25T17:57:40;3.40;99.90
3866;DHT22;1948;53.250;10.412;2023-02-25T18:00:32;3.30;99.90
3866;DHT22;1948;53.250;10.412;2023-02-25T18:03:13;3.30;99.90
3866;DHT22;1948;53.250;10.412;2023-02-25T18:05:55;3.30;99.90
3866;DHT22;1948;53.250;10.412;2023-02-25T18:08:29;3.30;99.90
3866;DHT22;1948;53.250;10.412;2023-02-25T18:11:20;3.20;99.90
3866;DHT22;1948;53.250;10.412;2023-02-25T18:13:55;3.20;99.90
3866;DHT22;1948;53.250;10.412;2023-02-25T18:16:35;3.20;99.90
3866;DHT22;1948;53.250;10.412;2023-02-25T18:19:20;3.20;99.90
3866;DHT22;1948;53.250;10.412;2023-02-25T18:21:54;3.20;99.90
3866;DHT22;1948;53.250;10.412;2023-02-25T18:24:32;3.10;99.90
3866;DHT22;1948;53.250;10.412;2023-02-25T18:27:03;3.10;99.90
3866;DHT22;1948;53.250;10.412;2023-02-25T18:29:45;3.10;99.90
3866;DHT22;1948;53.250;10.412;2023-02-25T18:32:14;3.00;99.90
3866;DHT22;1948;53.250;10.412;2023-02-25T18:34:41;3.00;99.90
3866;DHT22;1948;53.250;10.412;2023-02-25T18:37:15;2.90;99.90
3866;DHT22;1948;53.250;10.412;2023-02-25T18:39:45;2.90;99.90
3866;DHT22;1948;53.250;10.412;2023-02-25T18:42:16;2.90;99.90
3866;DHT22;1948;53.250;10.412;2023-02-25T18:44:45;2.90;99.90
3866;DHT22;1948;53.250;10.412;2023-02-25T18:47:14;2.80;99.90
3866;DHT22;1948;53.250;10.412;2023-02-25T18:49:43;2.80;99.90
3866;DHT22;1948;53.250;10.412;2023-02-25T18:52:21;2.80;99.90
3866;DHT22;1948;53.250;10.412;2023-02-25T18:54:51;2.80;99.90
3866;DHT22;1948;53.250;10.412;2023-02-25T18:57:22;2.80;99.90
3866;DHT22;1948;53.250;10.412;2023-02-25T18:59:56;2.80;99.90
3866;DHT22;1948;53.250;10.412;2023-02-25T19:02:31;2.90;99.90
3866;DHT22;1948;53.250;10.412;2023-02-25T19:05:01;3.00;99.90
3866;DHT22;1948;53.250;10.412;2023-02-25T19:07:35;3.00;99.90
3866;DHT22;1948;53.250;10.412;2023-02-25T19:10:03;3.10;99.90
3866;DHT22;1948;53.250;10.412;2023-02-25T19:12:33;3.20;99.90
3866;DHT22;1948;53.250;10.412;2023-02-25T19:15:06;3.20;99.90
3866;DHT22;1948;53.250;10.412;2023-02-25T19:17:37;3.30;99.90
3866;DHT22;1948;53.250;10.412;2023-02-25T19:20:10;3.30;99.90
3866;DHT22;1948;53.250;10.412;2023-02-25T19:22:43;3.30;99.90
3866;DHT22;1948;53.250;10.412;2023-02-25T19:25:20;3.50;99.90
3866;DHT22;1948;53.250;10.412;2023-02-25T19:27:54;3.40;99.90
3866;DHT22;1948;53.250;10.412;2023-02-25T19:30:31;3.40;99.90
3866;DHT22;1948;53.250;10.412;2023-02-25T19:33:02;3.40;99.90
3866;DHT22;1948;53.250;10.412;2023-02-25T19:35:36;3.50;99.90
3866;DHT22;1948;53.250;10.412;2023-02-25T19:38:15;3.60;99.90
3866;DHT22;1948;53.250;10.412;2023-02-25T19:40:45;3.60;99.90
3866;DHT22;1948;53.250;10.412;2023-02-25T19:43:14;3.50;99.90
3866;DHT22;1948;53.250;10.412;2023-02-25T19:45:44;3.40;99.90
3866;DHT22;1948;53.250;10.412;2023-02-25T19:48:11;3.30;99.90
3866;DHT22;1948;53.250;10.412;2023-02-25T19:50:41;3.30;99.90
3866;DHT22;1948;53.250;10.412;2023-02-25T19:53:10;3.20;99.90
3866;DHT22;1948;53.250;10.412;2023-02-25T19:55:37;3.10;99.90
3866;DHT22;1948;53.250;10.412;2023-02-25T19:58:09;2.90;99.90
3866;DHT22;1948;53.250;10.412;2023-02-25T20:00:36;2.80;99.90
3866;DHT22;1948;53.250;10.412;2023-02-25T20:03:13;2.80;99.90
3866;DHT22;1948;53.250;10.412;2023-02-25T20:05:46;2.70;99.90
3866;DHT22;1948;53.250;10.412;2023-02-25T20:08:16;2.70;99.90
3866;DHT22;1948;53.250;10.412;2023-02-25T20:10:45;2.70;99.90
3866;DHT22;1948;53.250;10.412;2023-02-25T20:13:15;2.60;99.90
3866;DHT22;1948;53.250;10.412;2023-02-25T20:15:43;2.50;99.90
3866;DHT22;1948;53.250;10.412;2023-02-25T20:18:12;2.50;99.90